sensor_id;sensor_type;location;lat;lon;timestamp;P1;durP1;ratioP1;P2;durP2;ratioP2
69334;SDS011;56477;52.742;15.242;2023-05-07T00:00:12;15.80;;;8.15;;
69334;SDS011;56477;52.742;15.242;2023-05-07T00:03:00;15.13;;;7.28;;
69334;SDS011;56477;52.742;15.242;2023-05-07T00:05:27;17.43;;;7.37;;
69334;SDS011;56477;52.742;15.242;2023-05-07T00:07:52;17.25;;;7.78;;
69334;SDS011;56477;52.742;15.242;2023-05-07T00:10:18;16.38;;;7.72;;
69334;SDS011;56477;52.742;15.242;2023-05-07T00:12:44;16.73;;;7.88;;
69334;SDS011;56477;52.742;15.242;2023-05-07T00:15:11;14.10;;;7.30;;
69334;SDS011;56477;52.742;15.242;2023-05-07T00:17:36;20.17;;;6.88;;
69334;SDS011;56477;52.742;15.242;2023-05-07T00:20:03;16.35;;;7.07;;
69334;SDS011;56477;52.742;15.242;2023-05-07T00:22:30;11.40;;;5.32;;
69334;SDS011;56477;52.742;15.242;2023-05-07T00:24:58;15.13;;;7.57;;
69334;SDS011;56477;52.742;15.242;2023-05-07T00:27:24;13.48;;;6.82;;
69334;SDS011;56477;52.742;15.242;2023-05-07T00:29:50;14.45;;;7.13;;
69334;SDS011;56477;52.742;15.242;2023-05-07T00:32:16;16.40;;;7.65;;
69334;SDS011;56477;52.742;15.242;2023-05-07T00:34:43;14.60;;;6.57;;
69334;SDS011;56477;52.742;15.242;2023-05-07T00:37:09;13.73;;;6.78;;
69334;SDS011;56477;52.742;15.242;2023-05-07T00:39:35;14.75;;;6.93;;
69334;SDS011;56477;52.742;15.242;2023-05-07T00:42:01;15.32;;;7.53;;
69334;SDS011;56477;52.742;15.242;2023-05-07T00:44:28;12.52;;;6.80;;
69334;SDS011;56477;52.742;15.242;2023-05-07T00:46:55;14.40;;;6.97;;
69334;SDS011;56477;52.742;15.242;2023-05-07T00:49:25;12.32;;;6.75;;
69334;SDS011;56477;52.742;15.242;2023-05-07T00:52:01;15.57;;;7.40;;
69334;SDS011;56477;52.742;15.242;2023-05-07T00:54:27;12.38;;;6.40;;
69334;SDS011;56477;52.742;15.242;2023-05-07T00:56:53;14.27;;;6.53;;
69334;SDS011;56477;52.742;15.242;2023-05-07T00:59:20;15.48;;;6.70;;
69334;SDS011;56477;52.742;15.242;2023-05-07T01:01:46;18.48;;;6.70;;
69334;SDS011;56477;52.742;15.242;2023-05-07T01:04:13;16.52;;;6.90;;
69334;SDS011;56477;52.742;15.242;2023-05-07T01:06:38;10.37;;;5.17;;
69334;SDS011;56477;52.742;15.242;2023-05-07T01:09:06;14.02;;;6.43;;
69334;SDS011;56477;52.742;15.242;2023-05-07T01:11:32;14.80;;;6.78;;
69334;SDS011;56477;52.742;15.242;2023-05-07T01:13:58;14.07;;;5.90;;
69334;SDS011;56477;52.742;15.242;2023-05-07T01:16:25;13.60;;;6.50;;
69334;SDS011;56477;52.742;15.242;2023-05-07T01:18:52;15.60;;;7.37;;
69334;SDS011;56477;52.742;15.242;2023-05-07T01:21:18;14.90;;;6.43;;
69334;SDS011;56477;52.742;15.242;2023-05-07T01:23:50;13.27;;;6.97;;
69334;SDS011;56477;52.742;15.242;2023-05-07T01:26:16;17.23;;;6.67;;
69334;SDS011;56477;52.742;15.242;2023-05-07T01:28:45;14.43;;;7.23;;
69334;SDS011;56477;52.742;15.242;2023-05-07T01:31:11;13.98;;;6.90;;
69334;SDS011;56477;52.742;15.242;2023-05-07T01:33:40;13.35;;;6.03;;
69334;SDS011;56477;52.742;15.242;2023-05-07T01:36:07;13.35;;;6.95;;
69334;SDS011;56477;52.742;15.242;2023-05-07T01:38:36;14.30;;;7.13;;
69334;SDS011;56477;52.742;15.242;2023-05-07T01:41:03;12.93;;;6.57;;
69334;SDS011;56477;52.742;15.242;2023-05-07T01:43:30;12.27;;;6.63;;
69334;SDS011;56477;52.742;15.242;2023-05-07T01:45:57;13.10;;;6.70;;
69334;SDS011;56477;52.742;15.242;2023-05-07T01:48:24;14.07;;;6.95;;
69334;SDS011;56477;52.742;15.242;2023-05-07T01:50:51;17.73;;;7.23;;
69334;SDS011;56477;52.742;15.242;2023-05-07T01:53:17;14.05;;;6.60;;
69334;SDS011;56477;52.742;15.242;2023-05-07T01:55:43;14.20;;;7.00;;
69334;SDS011;56477;52.742;15.242;2023-05-07T01:58:09;15.45;;;7.43;;
69334;SDS011;56477;52.742;15.242;2023-05-07T02:00:36;16.07;;;6.63;;
69334;SDS011;56477;52.742;15.242;2023-05-07T02:03:02;14.35;;;6.85;;
69334;SDS011;56477;52.742;15.242;2023-05-07T02:05:27;15.38;;;7.30;;
69334;SDS011;56477;52.742;15.242;2023-05-07T02:07:54;15.15;;;6.80;;
69334;SDS011;56477;52.742;15.242;2023-05-07T02:10:20;13.43;;;6.53;;
69334;SDS011;56477;52.742;15.242;2023-05-07T02:12:46;13.68;;;6.13;;
69334;SDS011;56477;52.742;15.242;2023-05-07T02:15:11;12.30;;;6.60;;
69334;SDS011;56477;52.742;15.242;2023-05-07T02:17:57;11.85;;;6.25;;
69334;SDS011;56477;52.742;15.242;2023-05-07T02:20:34;10.65;;;6.00;;
69334;SDS011;56477;52.742;15.242;2023-05-07T02:23:01;11.43;;;6.20;;
69334;SDS011;56477;52.742;15.242;2023-05-07T02:25:26;11.50;;;6.28;;
69334;SDS011;56477;52.742;15.242;2023-05-07T02:27:53;12.45;;;5.82;;
69334;SDS011;56477;52.742;15.242;2023-05-07T02:30:18;16.47;;;6.60;;
69334;SDS011;56477;52.742;15.242;2023-05-07T02:32:46;13.10;;;6.50;;
69334;SDS011;56477;52.742;15.242;2023-05-07T02:35:12;14.45;;;6.78;;
69334;SDS011;56477;52.742;15.242;2023-05-07T02:37:38;12.48;;;6.20;;
69334;SDS011;56477;52.742;15.242;2023-05-07T02:40:04;13.93;;;5.97;;
69334;SDS011;56477;52.742;15.242;2023-05-07T02:42:31;15.52;;;6.13;;
69334;SDS011;56477;52.742;15.242;2023-05-07T02:44:57;14.32;;;6.63;;
69334;SDS011;56477;52.742;15.242;2023-05-07T02:47:23;15.10;;;7.53;;
69334;SDS011;56477;52.742;15.242;2023-05-07T02:49:49;16.60;;;6.57;;
69334;SDS011;56477;52.742;15.242;2023-05-07T02:52:15;14.23;;;6.70;;
69334;SDS011;56477;52.742;15.242;2023-05-07T02:54:41;14.07;;;6.33;;
69334;SDS011;56477;52.742;15.242;2023-05-07T02:57:07;18.48;;;7.35;;
69334;SDS011;56477;52.742;15.242;2023-05-07T02:59:32;17.65;;;7.30;;
69334;SDS011;56477;52.742;15.242;2023-05-07T03:01:58;14.35;;;6.13;;
69334;SDS011;56477;52.742;15.242;2023-05-07T03:04:24;16.77;;;6.93;;
69334;SDS011;56477;52.742;15.242;2023-05-07T03:06:50;15.20;;;6.95;;
69334;SDS011;56477;52.742;15.242;2023-05-07T03:09:16;14.52;;;7.88;;
69334;SDS011;56477;52.742;15.242;2023-05-07T03:11:42;13.65;;;6.68;;
69334;SDS011;56477;52.742;15.242;2023-05-07T03:14:08;16.00;;;6.80;;
69334;SDS011;56477;52.742;15.242;2023-05-07T03:16:35;13.95;;;6.90;;
69334;SDS011;56477;52.742;15.242;2023-05-07T03:19:01;13.35;;;6.40;;
69334;SDS011;56477;52.742;15.242;2023-05-07T03:21:27;15.45;;;7.43;;
69334;SDS011;56477;52.742;15.242;2023-05-07T03:23:53;17.53;;;6.50;;
69334;SDS011;56477;52.742;15.242;2023-05-07T03:26:19;13.82;;;7.25;;
69334;SDS011;56477;52.742;15.242;2023-05-07T03:28:45;14.73;;;7.28;;
69334;SDS011;56477;52.742;15.242;2023-05-07T03:31:11;15.15;;;7.22;;
69334;SDS011;56477;52.742;15.242;2023-05-07T03:33:42;12.00;;;6.37;;
69334;SDS011;56477;52.742;15.242;2023-05-07T03:36:18;15.13;;;7.10;;
69334;SDS011;56477;52.742;15.242;2023-05-07T03:38:44;17.92;;;6.07;;
69334;SDS011;56477;52.742;15.242;2023-05-07T03:41:11;14.40;;;6.85;;
69334;SDS011;56477;52.742;15.242;2023-05-07T03:43:37;14.70;;;6.95;;
69334;SDS011;56477;52.742;15.242;2023-05-07T03:46:04;13.90;;;7.07;;
69334;SDS011;56477;52.742;15.242;2023-05-07T03:48:30;13.35;;;7.10;;
69334;SDS011;56477;52.742;15.242;2023-05-07T03:50:57;15.88;;;7.05;;
69334;SDS011;56477;52.742;15.242;2023-05-07T03:53:23;14.38;;;6.45;;
69334;SDS011;56477;52.742;15.242;2023-05-07T03:55:49;16.25;;;7.75;;
69334;SDS011;56477;52.742;15.242;2023-05-07T03:58:15;14.87;;;7.30;;
69334;SDS011;56477;52.742;15.242;2023-05-07T04:00:42;12.40;;;7.05;;
69334;SDS011;56477;52.742;15.242;2023-05-07T04:03:08;12.38;;;6.25;;
69334;SDS011;56477;52.742;15.242;2023-05-07T04:05:34;17.02;;;7.45;;
69334;SDS011;56477;52.742;15.242;2023-05-07T04:08:00;14.50;;;7.43;;
69334;SDS011;56477;52.742;15.242;2023-05-07T04:10:29;15.65;;;7.75;;
69334;SDS011;56477;52.742;15.242;2023-05-07T04:12:55;15.55;;;7.68;;
69334;SDS011;56477;52.742;15.242;2023-05-07T04:15:23;17.88;;;7.60;;
69334;SDS011;56477;52.742;15.242;2023-05-07T04:17:49;16.80;;;7.60;;
69334;SDS011;56477;52.742;15.242;2023-05-07T04:20:15;15.32;;;6.57;;
69334;SDS011;56477;52.742;15.242;2023-05-07T04:22:42;16.35;;;8.35;;
69334;SDS011;56477;52.742;15.242;2023-05-07T04:25:08;13.85;;;6.75;;
69334;SDS011;56477;52.742;15.242;2023-05-07T04:27:35;14.50;;;7.97;;
69334;SDS011;56477;52.742;15.242;2023-05-07T04:30:02;17.10;;;7.70;;
69334;SDS011;56477;52.742;15.242;2023-05-07T04:32:28;17.92;;;8.55;;
69334;SDS011;56477;52.742;15.242;2023-05-07T04:34:55;15.52;;;7.55;;
69334;SDS011;56477;52.742;15.242;2023-05-07T04:37:21;15.93;;;7.30;;
69334;SDS011;56477;52.742;15.242;2023-05-07T04:39:48;17.20;;;7.53;;
69334;SDS011;56477;52.742;15.242;2023-05-07T04:42:17;15.33;;;7.50;;
69334;SDS011;56477;52.742;15.242;2023-05-07T04:44:44;14.93;;;7.57;;
69334;SDS011;56477;52.742;15.242;2023-05-07T04:47:11;17.02;;;7.95;;
69334;SDS011;56477;52.742;15.242;2023-05-07T04:49:37;16.17;;;7.97;;
69334;SDS011;56477;52.742;15.242;2023-05-07T04:52:04;15.43;;;7.97;;
69334;SDS011;56477;52.742;15.242;2023-05-07T04:54:30;15.88;;;8.07;;
69334;SDS011;56477;52.742;15.242;2023-05-07T04:56:56;16.98;;;7.85;;
69334;SDS011;56477;52.742;15.242;2023-05-07T04:59:22;15.23;;;7.28;;
69334;SDS011;56477;52.742;15.242;2023-05-07T05:01:48;13.87;;;7.27;;
69334;SDS011;56477;52.742;15.242;2023-05-07T05:04:14;16.40;;;7.78;;
69334;SDS011;56477;52.742;15.242;2023-05-07T05:06:40;15.60;;;7.80;;
69334;SDS011;56477;52.742;15.242;2023-05-07T05:09:06;13.80;;;6.80;;
69334;SDS011;56477;52.742;15.242;2023-05-07T05:11:32;16.50;;;7.90;;
69334;SDS011;56477;52.742;15.242;2023-05-07T05:13:58;16.05;;;7.90;;
69334;SDS011;56477;52.742;15.242;2023-05-07T05:16:25;13.65;;;6.97;;
69334;SDS011;56477;52.742;15.242;2023-05-07T05:18:51;16.35;;;7.20;;
69334;SDS011;56477;52.742;15.242;2023-05-07T05:21:19;13.97;;;6.77;;
69334;SDS011;56477;52.742;15.242;2023-05-07T05:23:46;14.90;;;7.30;;
69334;SDS011;56477;52.742;15.242;2023-05-07T05:26:12;17.65;;;7.40;;
69334;SDS011;56477;52.742;15.242;2023-05-07T05:28:38;14.77;;;7.10;;
69334;SDS011;56477;52.742;15.242;2023-05-07T05:31:04;15.53;;;6.83;;
69334;SDS011;56477;52.742;15.242;2023-05-07T05:33:30;13.32;;;6.78;;
69334;SDS011;56477;52.742;15.242;2023-05-07T05:35:56;12.93;;;6.47;;
69334;SDS011;56477;52.742;15.242;2023-05-07T05:38:22;16.92;;;7.22;;
69334;SDS011;56477;52.742;15.242;2023-05-07T05:40:48;11.93;;;6.77;;
69334;SDS011;56477;52.742;15.242;2023-05-07T05:43:14;13.15;;;6.38;;
69334;SDS011;56477;52.742;15.242;2023-05-07T05:45:40;13.50;;;5.97;;
69334;SDS011;56477;52.742;15.242;2023-05-07T05:48:06;12.18;;;5.72;;
69334;SDS011;56477;52.742;15.242;2023-05-07T05:50:33;14.67;;;6.10;;
69334;SDS011;56477;52.742;15.242;2023-05-07T05:53:02;12.75;;;6.30;;
69334;SDS011;56477;52.742;15.242;2023-05-07T05:55:28;12.35;;;5.45;;
69334;SDS011;56477;52.742;15.242;2023-05-07T05:57:54;12.27;;;5.57;;
69334;SDS011;56477;52.742;15.242;2023-05-07T06:00:20;11.10;;;5.20;;
69334;SDS011;56477;52.742;15.242;2023-05-07T06:02:48;9.60;;;5.53;;
69334;SDS011;56477;52.742;15.242;2023-05-07T06:05:14;12.15;;;5.10;;
69334;SDS011;56477;52.742;15.242;2023-05-07T06:07:40;13.00;;;5.72;;
69334;SDS011;56477;52.742;15.242;2023-05-07T06:10:06;11.77;;;5.23;;
69334;SDS011;56477;52.742;15.242;2023-05-07T06:12:33;11.75;;;5.80;;
69334;SDS011;56477;52.742;15.242;2023-05-07T06:14:58;11.53;;;5.57;;
69334;SDS011;56477;52.742;15.242;2023-05-07T06:17:24;10.37;;;5.60;;
69334;SDS011;56477;52.742;15.242;2023-05-07T06:19:50;11.88;;;5.20;;
69334;SDS011;56477;52.742;15.242;2023-05-07T06:22:17;10.68;;;3.75;;
69334;SDS011;56477;52.742;15.242;2023-05-07T06:24:43;9.37;;;4.63;;
69334;SDS011;56477;52.742;15.242;2023-05-07T06:27:09;10.77;;;4.93;;
69334;SDS011;56477;52.742;15.242;2023-05-07T06:29:35;12.23;;;6.05;;
69334;SDS011;56477;52.742;15.242;2023-05-07T06:32:08;11.65;;;5.80;;
69334;SDS011;56477;52.742;15.242;2023-05-07T06:34:35;9.63;;;4.93;;
69334;SDS011;56477;52.742;15.242;2023-05-07T06:37:02;8.77;;;4.10;;
69334;SDS011;56477;52.742;15.242;2023-05-07T06:39:28;13.10;;;5.00;;
69334;SDS011;56477;52.742;15.242;2023-05-07T06:41:54;9.63;;;4.72;;
69334;SDS011;56477;52.742;15.242;2023-05-07T06:44:20;9.77;;;4.60;;
69334;SDS011;56477;52.742;15.242;2023-05-07T06:46:46;10.63;;;4.37;;
69334;SDS011;56477;52.742;15.242;2023-05-07T06:49:12;7.75;;;4.20;;
69334;SDS011;56477;52.742;15.242;2023-05-07T06:51:39;12.13;;;4.65;;
69334;SDS011;56477;52.742;15.242;2023-05-07T06:54:05;8.60;;;4.20;;
69334;SDS011;56477;52.742;15.242;2023-05-07T06:56:31;8.37;;;4.07;;
69334;SDS011;56477;52.742;15.242;2023-05-07T06:58:59;7.43;;;4.00;;
69334;SDS011;56477;52.742;15.242;2023-05-07T07:01:26;7.63;;;4.13;;
69334;SDS011;56477;52.742;15.242;2023-05-07T07:03:52;6.82;;;3.42;;
69334;SDS011;56477;52.742;15.242;2023-05-07T07:06:18;8.77;;;4.30;;
69334;SDS011;56477;52.742;15.242;2023-05-07T07:08:44;7.90;;;3.80;;
69334;SDS011;56477;52.742;15.242;2023-05-07T07:11:10;6.20;;;3.25;;
69334;SDS011;56477;52.742;15.242;2023-05-07T07:13:35;7.32;;;3.60;;
69334;SDS011;56477;52.742;15.242;2023-05-07T07:16:02;5.93;;;3.30;;
69334;SDS011;56477;52.742;15.242;2023-05-07T07:18:28;7.28;;;3.53;;
69334;SDS011;56477;52.742;15.242;2023-05-07T07:20:54;6.70;;;3.03;;
69334;SDS011;56477;52.742;15.242;2023-05-07T07:23:20;5.68;;;3.20;;
69334;SDS011;56477;52.742;15.242;2023-05-07T07:25:46;7.07;;;3.10;;
69334;SDS011;56477;52.742;15.242;2023-05-07T07:28:12;5.65;;;2.95;;
69334;SDS011;56477;52.742;15.242;2023-05-07T07:30:38;4.70;;;2.78;;
69334;SDS011;56477;52.742;15.242;2023-05-07T07:33:05;6.65;;;3.03;;
69334;SDS011;56477;52.742;15.242;2023-05-07T07:35:31;6.70;;;2.80;;
69334;SDS011;56477;52.742;15.242;2023-05-07T07:37:57;6.90;;;2.40;;
69334;SDS011;56477;52.742;15.242;2023-05-07T07:40:24;4.63;;;2.42;;
69334;SDS011;56477;52.742;15.242;2023-05-07T07:42:50;4.07;;;2.47;;
69334;SDS011;56477;52.742;15.242;2023-05-07T07:45:17;4.03;;;2.00;;
69334;SDS011;56477;52.742;15.242;2023-05-07T07:47:42;5.97;;;2.53;;
69334;SDS011;56477;52.742;15.242;2023-05-07T07:50:09;4.90;;;2.50;;
69334;SDS011;56477;52.742;15.242;2023-05-07T07:52:35;5.65;;;2.80;;
69334;SDS011;56477;52.742;15.242;2023-05-07T07:55:01;5.72;;;2.65;;
69334;SDS011;56477;52.742;15.242;2023-05-07T07:57:28;4.57;;;2.67;;
69334;SDS011;56477;52.742;15.242;2023-05-07T07:59:54;6.10;;;2.47;;
69334;SDS011;56477;52.742;15.242;2023-05-07T08:02:20;5.80;;;2.63;;
69334;SDS011;56477;52.742;15.242;2023-05-07T08:04:46;8.98;;;2.38;;
69334;SDS011;56477;52.742;15.242;2023-05-07T08:07:12;5.15;;;2.50;;
69334;SDS011;56477;52.742;15.242;2023-05-07T08:09:39;4.75;;;2.33;;
69334;SDS011;56477;52.742;15.242;2023-05-07T08:12:05;6.90;;;2.88;;
69334;SDS011;56477;52.742;15.242;2023-05-07T08:14:32;9.60;;;2.50;;
69334;SDS011;56477;52.742;15.242;2023-05-07T08:16:58;5.15;;;2.40;;
69334;SDS011;56477;52.742;15.242;2023-05-07T08:19:24;5.78;;;2.53;;
69334;SDS011;56477;52.742;15.242;2023-05-07T08:21:50;4.85;;;2.92;;
69334;SDS011;56477;52.742;15.242;2023-05-07T08:24:17;4.80;;;2.70;;
69334;SDS011;56477;52.742;15.242;2023-05-07T08:26:43;4.40;;;2.40;;
69334;SDS011;56477;52.742;15.242;2023-05-07T08:29:10;6.30;;;2.65;;
69334;SDS011;56477;52.742;15.242;2023-05-07T08:31:36;5.32;;;2.88;;
69334;SDS011;56477;52.742;15.242;2023-05-07T08:34:04;4.15;;;2.45;;
69334;SDS011;56477;52.742;15.242;2023-05-07T08:36:30;6.93;;;3.07;;
69334;SDS011;56477;52.742;15.242;2023-05-07T08:38:56;6.18;;;2.90;;
69334;SDS011;56477;52.742;15.242;2023-05-07T08:41:22;4.35;;;2.20;;
69334;SDS011;56477;52.742;15.242;2023-05-07T08:43:49;5.60;;;3.00;;
69334;SDS011;56477;52.742;15.242;2023-05-07T08:46:17;4.90;;;2.60;;
69334;SDS011;56477;52.742;15.242;2023-05-07T08:48:45;4.15;;;2.67;;
69334;SDS011;56477;52.742;15.242;2023-05-07T08:51:15;6.18;;;3.05;;
69334;SDS011;56477;52.742;15.242;2023-05-07T08:53:44;4.43;;;2.30;;
69334;SDS011;56477;52.742;15.242;2023-05-07T08:56:11;5.53;;;2.65;;
69334;SDS011;56477;52.742;15.242;2023-05-07T08:58:38;6.10;;;2.60;;
69334;SDS011;56477;52.742;15.242;2023-05-07T09:01:07;7.93;;;2.65;;
69334;SDS011;56477;52.742;15.242;2023-05-07T09:03:36;4.60;;;2.80;;
69334;SDS011;56477;52.742;15.242;2023-05-07T09:06:03;5.45;;;2.30;;
69334;SDS011;56477;52.742;15.242;2023-05-07T09:08:29;4.73;;;2.50;;
69334;SDS011;56477;52.742;15.242;2023-05-07T09:10:55;5.47;;;2.25;;
69334;SDS011;56477;52.742;15.242;2023-05-07T09:13:21;7.25;;;2.50;;
69334;SDS011;56477;52.742;15.242;2023-05-07T09:15:47;5.80;;;2.20;;
69334;SDS011;56477;52.742;15.242;2023-05-07T09:18:13;6.13;;;2.20;;
69334;SDS011;56477;52.742;15.242;2023-05-07T09:20:39;5.50;;;2.53;;
69334;SDS011;56477;52.742;15.242;2023-05-07T09:23:06;4.45;;;2.55;;
69334;SDS011;56477;52.742;15.242;2023-05-07T09:25:33;5.35;;;2.30;;
69334;SDS011;56477;52.742;15.242;2023-05-07T09:28:01;5.33;;;2.33;;
69334;SDS011;56477;52.742;15.242;2023-05-07T09:30:28;5.47;;;2.10;;
69334;SDS011;56477;52.742;15.242;2023-05-07T09:32:56;4.75;;;2.25;;
69334;SDS011;56477;52.742;15.242;2023-05-07T09:35:26;4.40;;;2.20;;
69334;SDS011;56477;52.742;15.242;2023-05-07T09:37:53;4.38;;;2.20;;
69334;SDS011;56477;52.742;15.242;2023-05-07T09:40:24;5.73;;;2.70;;
69334;SDS011;56477;52.742;15.242;2023-05-07T09:42:51;4.18;;;1.98;;
69334;SDS011;56477;52.742;15.242;2023-05-07T09:45:29;4.80;;;2.60;;
69334;SDS011;56477;52.742;15.242;2023-05-07T09:47:56;5.53;;;2.22;;
69334;SDS011;56477;52.742;15.242;2023-05-07T09:50:27;3.83;;;1.77;;
69334;SDS011;56477;52.742;15.242;2023-05-07T09:52:55;5.20;;;2.83;;
69334;SDS011;56477;52.742;15.242;2023-05-07T09:55:22;4.60;;;2.30;;
69334;SDS011;56477;52.742;15.242;2023-05-07T09:57:52;6.20;;;2.10;;
69334;SDS011;56477;52.742;15.242;2023-05-07T10:00:19;4.05;;;2.13;;
69334;SDS011;56477;52.742;15.242;2023-05-07T10:02:51;4.43;;;2.17;;
69334;SDS011;56477;52.742;15.242;2023-05-07T10:05:18;4.63;;;2.00;;
69334;SDS011;56477;52.742;15.242;2023-05-07T10:07:46;5.00;;;2.13;;
69334;SDS011;56477;52.742;15.242;2023-05-07T10:10:14;3.65;;;1.73;;
69334;SDS011;56477;52.742;15.242;2023-05-07T10:12:43;3.15;;;1.77;;
69334;SDS011;56477;52.742;15.242;2023-05-07T10:15:10;3.83;;;1.88;;
69334;SDS011;56477;52.742;15.242;2023-05-07T10:17:38;5.07;;;2.33;;
69334;SDS011;56477;52.742;15.242;2023-05-07T10:20:05;3.58;;;1.80;;
69334;SDS011;56477;52.742;15.242;2023-05-07T10:22:34;4.45;;;2.13;;
69334;SDS011;56477;52.742;15.242;2023-05-07T10:25:05;4.38;;;1.80;;
69334;SDS011;56477;52.742;15.242;2023-05-07T10:27:36;3.85;;;2.00;;
69334;SDS011;56477;52.742;15.242;2023-05-07T10:30:26;6.00;;;2.50;;
69334;SDS011;56477;52.742;15.242;2023-05-07T10:33:16;4.28;;;1.30;;
69334;SDS011;56477;52.742;15.242;2023-05-07T10:35:46;3.17;;;1.25;;
69334;SDS011;56477;52.742;15.242;2023-05-07T10:38:13;4.45;;;1.67;;
69334;SDS011;56477;52.742;15.242;2023-05-07T10:40:39;4.07;;;1.50;;
69334;SDS011;56477;52.742;15.242;2023-05-07T10:43:06;3.47;;;1.53;;
69334;SDS011;56477;52.742;15.242;2023-05-07T10:45:32;3.08;;;2.00;;
69334;SDS011;56477;52.742;15.242;2023-05-07T10:50:36;2.90;;;1.40;;
69334;SDS011;56477;52.742;15.242;2023-05-07T10:58:23;3.08;;;1.70;;
69334;SDS011;56477;52.742;15.242;2023-05-07T11:00:59;3.35;;;1.90;;
69334;SDS011;56477;52.742;15.242;2023-05-07T11:03:28;3.20;;;1.70;;
69334;SDS011;56477;52.742;15.242;2023-05-07T11:06:11;3.42;;;1.42;;
69334;SDS011;56477;52.742;15.242;2023-05-07T11:11:18;4.20;;;1.48;;
69334;SDS011;56477;52.742;15.242;2023-05-07T11:13:48;2.97;;;1.92;;
69334;SDS011;56477;52.742;15.242;2023-05-07T11:16:18;3.03;;;1.50;;
69334;SDS011;56477;52.742;15.242;2023-05-07T11:18:54;2.78;;;1.80;;
69334;SDS011;56477;52.742;15.242;2023-05-07T11:21:33;3.93;;;1.50;;
69334;SDS011;56477;52.742;15.242;2023-05-07T11:24:04;3.47;;;1.38;;
69334;SDS011;56477;52.742;15.242;2023-05-07T11:26:41;2.13;;;1.35;;
69334;SDS011;56477;52.742;15.242;2023-05-07T11:29:12;2.80;;;1.35;;
69334;SDS011;56477;52.742;15.242;2023-05-07T11:31:42;2.92;;;1.73;;
69334;SDS011;56477;52.742;15.242;2023-05-07T11:34:09;4.17;;;1.70;;
69334;SDS011;56477;52.742;15.242;2023-05-07T11:36:36;3.55;;;1.95;;
69334;SDS011;56477;52.742;15.242;2023-05-07T11:41:53;3.10;;;1.48;;
69334;SDS011;56477;52.742;15.242;2023-05-07T11:44:20;3.20;;;1.50;;
69334;SDS011;56477;52.742;15.242;2023-05-07T11:46:46;3.13;;;1.63;;
69334;SDS011;56477;52.742;15.242;2023-05-07T11:49:12;2.67;;;1.38;;
69334;SDS011;56477;52.742;15.242;2023-05-07T11:51:38;3.45;;;1.20;;
69334;SDS011;56477;52.742;15.242;2023-05-07T11:54:04;2.65;;;1.42;;
69334;SDS011;56477;52.742;15.242;2023-05-07T11:56:34;3.43;;;1.60;;
69334;SDS011;56477;52.742;15.242;2023-05-07T11:59:01;2.88;;;1.65;;
69334;SDS011;56477;52.742;15.242;2023-05-07T12:01:26;4.18;;;1.88;;
69334;SDS011;56477;52.742;15.242;2023-05-07T12:03:53;3.35;;;1.40;;
69334;SDS011;56477;52.742;15.242;2023-05-07T12:06:18;2.43;;;1.47;;
69334;SDS011;56477;52.742;15.242;2023-05-07T12:08:45;2.92;;;2.00;;
69334;SDS011;56477;52.742;15.242;2023-05-07T12:11:29;3.13;;;1.70;;
69334;SDS011;56477;52.742;15.242;2023-05-07T12:13:55;3.17;;;1.60;;
69334;SDS011;56477;52.742;15.242;2023-05-07T12:16:21;5.23;;;1.70;;
69334;SDS011;56477;52.742;15.242;2023-05-07T12:18:47;1.88;;;1.00;;
69334;SDS011;56477;52.742;15.242;2023-05-07T12:21:13;3.50;;;1.75;;
69334;SDS011;56477;52.742;15.242;2023-05-07T12:23:40;2.95;;;1.20;;
69334;SDS011;56477;52.742;15.242;2023-05-07T12:26:06;2.78;;;1.00;;
69334;SDS011;56477;52.742;15.242;2023-05-07T12:28:37;2.53;;;1.00;;
69334;SDS011;56477;52.742;15.242;2023-05-07T12:31:04;3.10;;;1.00;;
69334;SDS011;56477;52.742;15.242;2023-05-07T12:33:31;4.10;;;1.08;;
69334;SDS011;56477;52.742;15.242;2023-05-07T12:35:57;2.95;;;1.55;;
69334;SDS011;56477;52.742;15.242;2023-05-07T12:38:24;2.80;;;1.42;;
69334;SDS011;56477;52.742;15.242;2023-05-07T12:40:50;2.23;;;1.23;;
69334;SDS011;56477;52.742;15.242;2023-05-07T12:45:47;2.33;;;1.38;;
69334;SDS011;56477;52.742;15.242;2023-05-07T12:48:15;3.30;;;1.48;;
69334;SDS011;56477;52.742;15.242;2023-05-07T12:50:40;2.60;;;1.77;;
69334;SDS011;56477;52.742;15.242;2023-05-07T12:53:07;2.77;;;1.50;;
69334;SDS011;56477;52.742;15.242;2023-05-07T12:58:36;3.22;;;1.65;;
69334;SDS011;56477;52.742;15.242;2023-05-07T13:01:05;2.70;;;1.45;;
69334;SDS011;56477;52.742;15.242;2023-05-07T13:03:33;2.92;;;1.67;;
69334;SDS011;56477;52.742;15.242;2023-05-07T13:06:01;2.93;;;1.67;;
69334;SDS011;56477;52.742;15.242;2023-05-07T13:08:34;2.70;;;1.73;;
69334;SDS011;56477;52.742;15.242;2023-05-07T13:11:03;3.42;;;1.92;;
69334;SDS011;56477;52.742;15.242;2023-05-07T13:13:33;3.00;;;1.77;;
69334;SDS011;56477;52.742;15.242;2023-05-07T13:16:00;3.88;;;1.40;;
69334;SDS011;56477;52.742;15.242;2023-05-07T13:18:28;3.60;;;1.43;;
69334;SDS011;56477;52.742;15.242;2023-05-07T13:20:55;2.40;;;1.70;;
69334;SDS011;56477;52.742;15.242;2023-05-07T13:23:21;2.90;;;1.55;;
69334;SDS011;56477;52.742;15.242;2023-05-07T13:25:47;3.70;;;1.60;;
69334;SDS011;56477;52.742;15.242;2023-05-07T13:28:14;2.40;;;1.47;;
69334;SDS011;56477;52.742;15.242;2023-05-07T13:30:40;2.60;;;1.50;;
69334;SDS011;56477;52.742;15.242;2023-05-07T13:33:06;4.28;;;1.55;;
69334;SDS011;56477;52.742;15.242;2023-05-07T13:35:32;4.35;;;1.70;;
69334;SDS011;56477;52.742;15.242;2023-05-07T13:37:58;2.42;;;1.02;;
69334;SDS011;56477;52.742;15.242;2023-05-07T13:40:24;3.37;;;1.50;;
69334;SDS011;56477;52.742;15.242;2023-05-07T13:42:50;3.03;;;1.20;;
69334;SDS011;56477;52.742;15.242;2023-05-07T13:45:17;4.00;;;1.50;;
69334;SDS011;56477;52.742;15.242;2023-05-07T13:47:44;2.90;;;1.60;;
69334;SDS011;56477;52.742;15.242;2023-05-07T13:50:11;4.23;;;1.67;;
69334;SDS011;56477;52.742;15.242;2023-05-07T13:52:45;4.10;;;1.90;;
69334;SDS011;56477;52.742;15.242;2023-05-07T13:55:19;2.58;;;1.23;;
69334;SDS011;56477;52.742;15.242;2023-05-07T13:57:45;2.67;;;1.60;;
69334;SDS011;56477;52.742;15.242;2023-05-07T14:00:13;2.33;;;1.70;;
69334;SDS011;56477;52.742;15.242;2023-05-07T14:02:40;2.80;;;1.30;;
69334;SDS011;56477;52.742;15.242;2023-05-07T14:05:06;3.25;;;1.50;;
69334;SDS011;56477;52.742;15.242;2023-05-07T14:07:33;4.07;;;2.10;;
69334;SDS011;56477;52.742;15.242;2023-05-07T14:09:59;3.15;;;1.50;;
69334;SDS011;56477;52.742;15.242;2023-05-07T14:12:25;3.83;;;1.55;;
69334;SDS011;56477;52.742;15.242;2023-05-07T14:14:51;4.37;;;1.77;;
69334;SDS011;56477;52.742;15.242;2023-05-07T14:17:17;4.05;;;1.77;;
69334;SDS011;56477;52.742;15.242;2023-05-07T14:19:43;3.15;;;1.20;;
69334;SDS011;56477;52.742;15.242;2023-05-07T14:22:09;2.30;;;1.10;;
69334;SDS011;56477;52.742;15.242;2023-05-07T14:24:35;5.00;;;1.70;;
69334;SDS011;56477;52.742;15.242;2023-05-07T14:27:02;2.75;;;1.50;;
69334;SDS011;56477;52.742;15.242;2023-05-07T14:29:28;3.05;;;2.05;;
69334;SDS011;56477;52.742;15.242;2023-05-07T14:31:54;3.80;;;1.60;;
69334;SDS011;56477;52.742;15.242;2023-05-07T14:34:20;3.47;;;1.67;;
69334;SDS011;56477;52.742;15.242;2023-05-07T14:36:46;2.28;;;1.10;;
69334;SDS011;56477;52.742;15.242;2023-05-07T14:39:12;3.83;;;1.40;;
69334;SDS011;56477;52.742;15.242;2023-05-07T14:41:38;2.60;;;1.57;;
69334;SDS011;56477;52.742;15.242;2023-05-07T14:44:04;3.92;;;1.25;;
69334;SDS011;56477;52.742;15.242;2023-05-07T14:46:30;3.63;;;1.40;;